createdAt,value
2023-04-10T00:00:23.927Z,101029.38
2023-04-10T00:02:50.658Z,101028.59
2023-04-10T00:05:17.700Z,101022.53
2023-04-10T00:07:44.095Z,101026.06
2023-04-10T00:10:10.960Z,101026.03
2023-04-10T00:12:40.699Z,101030.38
2023-04-10T00:15:08.339Z,101026.03
2023-04-10T00:17:34.954Z,101029.56
2023-04-10T00:20:02.197Z,101029.56
2023-04-10T00:22:28.727Z,101037.38
2023-04-10T00:24:55.164Z,101037.44
2023-04-10T00:30:09.676Z,101040.91
2023-04-10T00:32:36.313Z,101046.22
2023-04-10T00:35:02.953Z,101041.91
2023-04-10T00:37:29.486Z,101046.41
2023-04-10T00:39:56.229Z,101048.06
2023-04-10T00:42:22.823Z,101044.53
2023-04-10T00:44:49.314Z,101047.94
2023-04-10T00:47:16.912Z,101044.53
2023-04-10T00:49:43.729Z,101044.66
2023-04-10T00:52:10.646Z,101038.59
2023-04-10T00:54:37.703Z,101035.13
2023-04-10T00:57:07.065Z,101042.91
2023-04-10T00:59:34.574Z,101037.81
2023-04-10T01:02:01.424Z,101034.38
2023-04-10T01:04:30.862Z,101042.13
2023-04-10T01:07:31.243Z,101035.25
2023-04-10T01:10:35.467Z,101033.53
2023-04-10T01:13:11.269Z,101033.50
2023-04-10T01:15:46.845Z,101036.09
2023-04-10T01:18:24.141Z,101033.47
2023-04-10T01:20:50.616Z,101030.00
2023-04-10T01:23:52.987Z,101028.28
2023-04-10T01:26:53.414Z,101027.47
2023-04-10T01:29:24.279Z,101032.75
2023-04-10T01:31:55.342Z,101041.31
2023-04-10T01:34:26.723Z,101042.34
2023-04-10T01:36:58.627Z,101054.41
2023-04-10T01:39:28.147Z,101056.94
2023-04-10T01:41:58.129Z,101055.47
2023-04-10T01:44:38.001Z,101056.22
2023-04-10T01:47:07.240Z,101052.88
2023-04-10T01:49:35.974Z,101047.66
2023-04-10T01:52:03.674Z,101046.03
2023-04-10T01:54:33.887Z,101040.81
2023-04-10T01:57:03.987Z,101046.94
2023-04-10T01:59:55.805Z,101045.97
2023-04-10T02:02:43.476Z,101040.75
2023-04-10T02:05:44.334Z,101038.19
2023-04-10T02:08:37.687Z,101029.59
2023-04-10T02:11:38.213Z,101028.78
2023-04-10T02:14:29.352Z,101020.94
2023-04-10T02:16:56.861Z,101019.25
2023-04-10T02:19:26.846Z,101022.72
2023-04-10T02:21:54.012Z,101009.75
2023-04-10T02:24:21.510Z,101013.22
2023-04-10T02:26:49.799Z,101001.13
2023-04-10T02:29:17.211Z,101014.94
2023-04-10T02:31:45.250Z,101004.59
2023-04-10T02:34:12.406Z,101000.28
2023-04-10T02:36:39.735Z,101004.50
2023-04-10T02:39:08.540Z,101001.91
2023-04-10T02:41:44.325Z,101004.53
2023-04-10T02:44:13.654Z,101001.88
2023-04-10T02:46:41.253Z,100995.06
2023-04-10T02:49:07.876Z,100996.84
2023-04-10T02:51:36.258Z,100992.50
2023-04-10T02:54:03.969Z,100998.47
2023-04-10T02:56:34.796Z,100995.00
2023-04-10T02:59:01.573Z,100994.19
2023-04-10T03:01:29.246Z,101002.00
2023-04-10T03:03:57.785Z,100991.66
2023-04-10T03:06:28.402Z,100990.84
2023-04-10T03:08:56.595Z,100988.19
2023-04-10T03:11:23.462Z,100986.53
2023-04-10T03:13:50.314Z,100995.19
2023-04-10T03:16:19.736Z,100996.13
2023-04-10T03:18:47.148Z,100998.72
2023-04-10T03:21:13.876Z,100995.25
2023-04-10T03:23:40.455Z,100990.94
2023-04-10T03:26:07.321Z,100988.44
2023-04-10T03:28:37.759Z,100986.78
2023-04-10T03:31:05.735Z,100977.19
2023-04-10T03:33:35.362Z,100973.84
2023-04-10T03:36:02.147Z,100973.84
2023-04-10T03:38:28.646Z,100966.91
2023-04-10T03:40:55.420Z,100966.03
2023-04-10T03:43:25.138Z,100957.44
2023-04-10T03:45:51.935Z,100964.31
2023-04-10T03:48:18.538Z,100963.50
2023-04-10T03:50:46.730Z,100963.44
2023-04-10T03:53:13.170Z,100957.38
2023-04-10T03:55:41.133Z,100950.44
2023-04-10T03:58:08.107Z,100952.97
2023-04-10T04:00:35.237Z,100961.72
2023-04-10T04:03:11.890Z,100961.69
2023-04-10T04:06:01.733Z,100959.03
2023-04-10T04:08:40.986Z,100959.88
2023-04-10T04:11:16.181Z,100957.25
2023-04-10T04:13:58.556Z,100960.69
2023-04-10T04:16:43.663Z,100948.59
2023-04-10T04:19:42.344Z,100962.44
2023-04-10T04:22:21.496Z,100954.69
2023-04-10T04:25:20.522Z,100954.72
2023-04-10T04:28:04.376Z,100954.69
2023-04-10T04:30:35.300Z,100954.66
2023-04-10T04:33:14.417Z,100959.78
2023-04-10T04:36:07.651Z,100957.22
2023-04-10T04:38:58.332Z,100958.06
2023-04-10T04:41:33.167Z,100959.81
2023-04-10T04:44:06.534Z,100961.53
2023-04-10T04:47:08.413Z,100967.44
2023-04-10T04:49:45.523Z,100964.00
2023-04-10T04:52:25.658Z,100971.75
2023-04-10T04:55:07.401Z,100971.75
2023-04-10T04:57:53.629Z,100972.66
2023-04-10T05:00:29.016Z,100972.63
2023-04-10T05:03:03.391Z,100979.56
2023-04-10T05:05:48.747Z,100975.25
2023-04-10T05:08:26.236Z,100975.25
2023-04-10T05:10:58.703Z,100978.69
2023-04-10T05:13:40.859Z,100970.91
2023-04-10T05:16:14.474Z,100977.78
2023-04-10T05:18:55.675Z,100978.63
2023-04-10T05:21:55.027Z,100980.41
2023-04-10T05:24:26.616Z,100976.06
2023-04-10T05:27:11.615Z,100984.75
2023-04-10T05:29:54.285Z,100971.78
2023-04-10T05:32:46.702Z,100973.50
2023-04-10T05:35:38.821Z,100976.94
2023-04-10T05:38:28.286Z,100978.59
2023-04-10T05:41:15.355Z,100976.84
2023-04-10T05:43:58.286Z,100978.47
2023-04-10T05:46:33.241Z,100973.19
2023-04-10T05:49:20.056Z,100983.41
2023-04-10T05:52:12.614Z,100989.34
2023-04-10T05:54:52.223Z,100985.69
2023-04-10T05:57:54.322Z,100991.47
2023-04-10T06:00:30.322Z,100986.22
2023-04-10T06:03:24.114Z,100997.41
2023-04-10T06:05:56.096Z,100991.16
2023-04-10T06:08:22.935Z,100982.34
2023-04-10T06:10:49.541Z,100978.03
2023-04-10T06:13:17.064Z,100973.47
2023-04-10T06:15:43.900Z,100973.25
2023-04-10T06:18:10.895Z,100982.47
2023-04-10T06:20:37.474Z,100970.91
2023-04-10T06:23:03.939Z,100962.91
2023-04-10T06:25:30.686Z,100961.94
2023-04-10T06:27:59.361Z,100967.75
2023-04-10T06:30:26.238Z,100960.75
2023-04-10T06:32:53.163Z,100956.34
2023-04-10T06:35:21.431Z,100952.50
2023-04-10T06:37:48.393Z,100958.19
2023-04-10T06:40:16.097Z,100948.34
2023-04-10T06:42:42.705Z,100953.56
2023-04-10T06:45:23.385Z,100947.50
2023-04-10T06:47:49.916Z,100945.56
2023-04-10T06:50:16.465Z,100946.06
2023-04-10T06:52:44.624Z,100945.28
2023-04-10T06:55:12.850Z,100947.13
2023-04-10T06:57:40.081Z,100953.34
2023-04-10T07:00:07.593Z,100948.16
2023-04-10T07:02:34.066Z,100940.09
2023-04-10T07:05:00.829Z,100942.78
2023-04-10T07:07:28.666Z,100945.97
2023-04-10T07:09:55.578Z,100948.06
2023-04-10T07:12:22.860Z,100946.84
2023-04-10T07:14:49.298Z,100947.94
2023-04-10T07:17:16.042Z,100950.59
2023-04-10T07:19:42.541Z,100947.16
2023-04-10T07:22:08.979Z,100950.53
2023-04-10T07:24:35.629Z,100940.84
2023-04-10T07:27:02.309Z,100939.41
2023-04-10T07:29:28.979Z,100934.69
2023-04-10T07:31:55.523Z,100936.44
2023-04-10T07:34:22.224Z,100938.31
2023-04-10T07:36:48.701Z,100917.63
2023-04-10T07:39:15.246Z,100917.47
2023-04-10T07:41:42.048Z,100917.94
2023-04-10T07:44:08.560Z,100920.88
2023-04-10T07:46:35.136Z,100921.50
2023-04-10T07:49:01.733Z,100912.69
2023-04-10T07:51:28.923Z,100913.63
2023-04-10T07:53:56.168Z,100906.66
2023-04-10T07:56:23.114Z,100907.91
2023-04-10T07:58:51.480Z,100901.31
2023-04-10T08:01:17.909Z,100902.78
2023-04-10T08:03:46.930Z,100905.38
2023-04-10T08:06:13.724Z,100912.19
2023-04-10T08:08:41.766Z,100911.09
2023-04-10T08:11:26.620Z,100904.72
2023-04-10T08:13:55.281Z,100906.09
2023-04-10T08:16:26.577Z,100893.91
2023-04-10T08:18:54.547Z,100909.03
2023-04-10T08:21:22.180Z,100907.25
2023-04-10T08:23:53.166Z,100913.72
2023-04-10T08:26:19.772Z,100904.56
2023-04-10T08:28:50.114Z,100906.91
2023-04-10T08:31:17.217Z,100893.38
2023-04-10T08:33:43.766Z,100893.28
2023-04-10T08:36:11.103Z,100883.09
2023-04-10T08:38:37.642Z,100885.66
2023-04-10T08:41:04.862Z,100892.69
2023-04-10T08:43:31.645Z,100888.16
2023-04-10T08:45:58.825Z,100886.47
2023-04-10T08:48:38.023Z,100888.75
2023-04-10T08:51:06.149Z,100887.72
2023-04-10T08:53:39.631Z,100866.25
2023-04-10T08:56:07.577Z,100870.19
2023-04-10T08:58:34.602Z,100870.22
2023-04-10T09:01:01.850Z,100865.75
2023-04-10T09:03:28.556Z,100861.66
2023-04-10T09:05:56.661Z,100862.84
2023-04-10T09:08:23.102Z,100861.31
2023-04-10T09:10:49.571Z,100854.38
2023-04-10T09:13:16.353Z,100850.69
2023-04-10T09:16:03.179Z,100855.16
2023-04-10T09:18:41.805Z,100841.72
2023-04-10T09:21:10.669Z,100849.44
2023-04-10T09:23:37.526Z,100844.91
2023-04-10T09:26:31.541Z,100827.19
2023-04-10T09:29:06.486Z,100825.53
2023-04-10T09:31:38.222Z,100826.84
2023-04-10T09:34:13.502Z,100821.81
2023-04-10T09:37:02.484Z,100814.09
2023-04-10T09:39:41.058Z,100815.28
2023-04-10T09:42:07.579Z,100806.13
2023-04-10T09:44:36.395Z,100815.69
2023-04-10T09:47:21.499Z,100808.75
2023-04-10T09:49:52.958Z,100800.66
2023-04-10T09:52:41.747Z,100791.72
2023-04-10T09:55:08.767Z,100785.94
2023-04-10T09:57:36.008Z,100776.50
2023-04-10T10:00:05.291Z,100773.78
2023-04-10T10:02:40.096Z,100771.31
2023-04-10T10:05:07.788Z,100773.34
2023-04-10T10:07:34.856Z,100761.09
2023-04-10T10:10:02.890Z,100758.50
2023-04-10T10:12:39.975Z,100758.28
2023-04-10T10:15:26.033Z,100758.06
2023-04-10T10:18:05.323Z,100759.28
2023-04-10T10:20:33.611Z,100758.84
2023-04-10T10:23:03.676Z,100757.19
2023-04-10T10:25:31.440Z,100748.84
2023-04-10T10:28:02.796Z,100738.81
2023-04-10T10:30:32.385Z,100740.88
2023-04-10T10:33:00.950Z,100744.22
2023-04-10T10:35:29.665Z,100735.78
2023-04-10T10:37:59.236Z,100732.28
2023-04-10T10:40:33.409Z,100733.75
2023-04-10T10:43:09.306Z,100721.22
2023-04-10T10:46:03.804Z,100718.38
2023-04-10T10:48:30.345Z,100717.88
2023-04-10T10:50:59.404Z,100716.94
2023-04-10T10:53:40.888Z,100708.00
2023-04-10T10:56:19.575Z,100696.28
2023-04-10T10:58:59.252Z,100701.75
2023-04-10T11:01:26.272Z,100693.94
2023-04-10T11:03:53.164Z,100696.16
2023-04-10T11:06:49.906Z,100686.72
2023-04-10T11:09:51.639Z,100688.84
2023-04-10T11:12:21.731Z,100706.75
2023-04-10T11:15:02.425Z,100691.97
2023-04-10T11:17:52.104Z,100688.31
2023-04-10T11:20:21.924Z,100677.31
2023-04-10T11:23:12.896Z,100690.28
2023-04-10T11:25:53.776Z,100681.63
2023-04-10T11:28:46.865Z,100666.41
2023-04-10T11:31:19.701Z,100657.72
2023-04-10T11:33:48.062Z,100657.06
2023-04-10T11:36:17.529Z,100639.44
2023-04-10T11:39:00.833Z,100640.53
2023-04-10T11:41:35.013Z,100644.75
2023-04-10T11:44:03.361Z,100634.09
2023-04-10T11:46:31.032Z,100634.97
2023-04-10T11:49:02.945Z,100627.34
2023-04-10T11:51:31.168Z,100624.66
2023-04-10T11:54:27.906Z,100626.72
2023-04-10T11:57:01.361Z,100605.06
2023-04-10T11:59:29.428Z,100610.59
2023-04-10T12:02:11.552Z,100604.22
2023-04-10T12:04:38.639Z,100599.81
2023-04-10T12:07:05.389Z,100596.31
2023-04-10T12:09:32.223Z,100598.72
2023-04-10T12:12:04.310Z,100595.00
2023-04-10T12:14:39.481Z,100581.81
2023-04-10T12:17:11.410Z,100587.50
2023-04-10T12:19:39.024Z,100591.06
2023-04-10T12:22:06.560Z,100596.78
2023-04-10T12:24:43.536Z,100587.50
2023-04-10T12:27:21.255Z,100574.63
2023-04-10T12:29:49.910Z,100569.47
2023-04-10T12:32:17.577Z,100572.69
2023-04-10T12:34:57.955Z,100569.34
2023-04-10T12:37:26.488Z,100559.38
2023-04-10T12:39:53.028Z,100569.41
2023-04-10T12:42:22.591Z,100571.38
2023-04-10T12:44:54.375Z,100563.41
2023-04-10T12:47:21.235Z,100555.56
2023-04-10T12:50:15.331Z,100555.38
2023-04-10T12:52:45.034Z,100547.19
2023-04-10T12:55:12.915Z,100542.16
2023-04-10T12:57:40.699Z,100540.81
2023-04-10T13:00:09.769Z,100540.72
2023-04-10T13:02:38.042Z,100539.25
2023-04-10T13:05:06.192Z,100539.41
2023-04-10T13:07:33.132Z,100531.16
2023-04-10T13:09:59.864Z,100522.50
2023-04-10T13:12:27.072Z,100521.63
2023-04-10T13:14:54.530Z,100524.91
2023-04-10T13:17:21.752Z,100508.53
2023-04-10T13:19:48.626Z,100511.28
2023-04-10T13:22:15.221Z,100505.06
2023-04-10T13:24:42.771Z,100502.19
2023-04-10T13:27:10.077Z,100491.63
2023-04-10T13:29:39.311Z,100501.13
2023-04-10T13:32:07.007Z,100485.88
2023-04-10T13:34:34.139Z,100484.91
2023-04-10T13:37:00.885Z,100484.56
2023-04-10T13:39:29.351Z,100479.59
2023-04-10T13:41:56.686Z,100463.28
2023-04-10T13:44:23.392Z,100466.66
2023-04-10T13:46:50.012Z,100468.47
2023-04-10T13:49:17.797Z,100454.44
2023-04-10T13:51:47.443Z,100459.69
2023-04-10T13:54:16.799Z,100464.97
2023-04-10T13:56:44.401Z,100457.03
2023-04-10T13:59:11.238Z,100454.00
2023-04-10T14:01:38.177Z,100444.00
2023-04-10T14:04:04.944Z,100427.91
2023-04-10T14:06:31.884Z,100442.44
2023-04-10T14:08:58.590Z,100429.63
2023-04-10T14:11:25.937Z,100427.56
2023-04-10T14:13:52.915Z,100446.25
2023-04-10T14:16:19.860Z,100426.31
2023-04-10T14:18:46.559Z,100427.91
2023-04-10T14:21:13.123Z,100417.69
2023-04-10T14:23:41.281Z,100427.94
2023-04-10T14:26:07.977Z,100409.66
2023-04-10T14:28:34.947Z,100422.38
2023-04-10T14:31:01.966Z,100407.81
2023-04-10T14:33:28.639Z,100396.63
2023-04-10T14:35:55.506Z,100394.03
2023-04-10T14:38:22.292Z,100410.66
2023-04-10T14:40:50.286Z,100388.41
2023-04-10T14:43:17.364Z,100386.19
2023-04-10T14:45:44.138Z,100385.19
2023-04-10T14:48:12.607Z,100380.41
2023-04-10T14:50:39.671Z,100371.03
2023-04-10T14:53:06.316Z,100374.28
2023-04-10T14:55:33.017Z,100367.13
2023-04-10T14:57:59.567Z,100353.06
2023-04-10T15:00:26.304Z,100355.09
2023-04-10T15:02:53.280Z,100342.91
2023-04-10T15:05:20.201Z,100353.50
2023-04-10T15:07:47.054Z,100333.63
2023-04-10T15:10:13.686Z,100322.66
2023-04-10T15:15:07.361Z,100318.59
2023-04-10T15:17:34.250Z,100322.94
2023-04-10T15:20:01.100Z,100323.09
2023-04-10T15:22:29.176Z,100309.91
2023-04-10T15:24:55.960Z,100304.41
2023-04-10T15:27:22.436Z,100305.63
2023-04-10T15:29:49.561Z,100294.94
2023-04-10T15:32:16.238Z,100293.66
2023-04-10T15:34:44.227Z,100299.19
2023-04-10T15:37:11.585Z,100293.91
2023-04-10T15:39:38.234Z,100289.78
2023-04-10T15:42:05.948Z,100297.00
2023-04-10T15:44:32.562Z,100291.69
2023-04-10T15:46:59.065Z,100294.97
2023-04-10T15:49:34.383Z,100294.72
2023-04-10T15:52:05.378Z,100281.91
2023-04-10T15:54:33.512Z,100281.41
2023-04-10T15:57:01.437Z,100276.81
2023-04-10T15:59:28.147Z,100275.13
2023-04-10T16:01:54.750Z,100274.22
2023-04-10T16:04:21.414Z,100265.59
2023-04-10T16:06:47.944Z,100247.97
2023-04-10T16:09:24.952Z,100238.69
2023-04-10T16:11:53.745Z,100233.81
2023-04-10T16:14:20.619Z,100240.31
2023-04-10T16:16:47.203Z,100226.38
2023-04-10T16:19:14.278Z,100229.47
2023-04-10T16:21:40.913Z,100225.28
2023-04-10T16:24:07.687Z,100222.66
2023-04-10T16:26:34.160Z,100232.75
2023-04-10T16:29:00.828Z,100228.47
2023-04-10T16:31:27.481Z,100229.25
2023-04-10T16:33:53.972Z,100237.28
2023-04-10T16:36:20.601Z,100234.47
2023-04-10T16:38:49.722Z,100230.81
2023-04-10T16:41:20.778Z,100235.81
2023-04-10T16:43:47.709Z,100237.63
2023-04-10T16:46:14.514Z,100241.16
2023-04-10T16:48:41.514Z,100240.81
2023-04-10T16:51:14.526Z,100240.41
2023-04-10T16:53:41.245Z,100235.88
2023-04-10T16:56:08.067Z,100233.56
2023-04-10T16:58:36.715Z,100236.59
2023-04-10T17:01:27.041Z,100230.84
2023-04-10T17:03:54.271Z,100224.09
2023-04-10T17:06:21.047Z,100218.19
2023-04-10T17:08:47.706Z,100212.44
2023-04-10T17:11:14.388Z,100203.28
2023-04-10T17:13:41.404Z,100196.53
2023-04-10T17:16:08.524Z,100199.03
2023-04-10T17:18:35.344Z,100194.25
2023-04-10T17:21:01.885Z,100197.59
2023-04-10T17:23:28.790Z,100185.91
2023-04-10T17:25:55.296Z,100195.88
2023-04-10T17:28:21.806Z,100192.97
2023-04-10T17:30:48.430Z,100185.53
2023-04-10T17:33:15.076Z,100180.13
2023-04-10T17:35:42.039Z,100183.00
2023-04-10T17:38:08.791Z,100186.38
2023-04-10T17:40:37.073Z,100178.06
2023-04-10T17:43:03.976Z,100167.81
2023-04-10T17:45:30.604Z,100155.66
2023-04-10T17:47:57.125Z,100151.44
2023-04-10T17:50:23.868Z,100147.22
2023-04-10T17:52:50.364Z,100164.34
2023-04-10T17:55:20.626Z,100165.38
2023-04-10T17:57:48.795Z,100166.88
2023-04-10T18:00:17.611Z,100170.44
2023-04-10T18:02:45.329Z,100164.41
2023-04-10T18:05:12.291Z,100171.47
2023-04-10T18:07:39.199Z,100167.94
2023-04-10T18:10:11.405Z,100164.22
2023-04-10T18:12:38.062Z,100164.16
2023-04-10T18:15:05.172Z,100155.97
2023-04-10T18:17:31.797Z,100173.78
2023-04-10T18:19:58.301Z,100182.84
2023-04-10T18:22:24.810Z,100188.22
2023-04-10T18:24:51.492Z,100198.56
2023-04-10T18:27:18.080Z,100208.28
2023-04-10T18:29:45.132Z,100202.38
2023-04-10T18:32:11.582Z,100189.09
2023-04-10T18:34:39.238Z,100185.94
2023-04-10T18:37:06.844Z,100185.72
2023-04-10T18:39:38.062Z,100179.59
2023-04-10T18:42:07.256Z,100180.44
2023-04-10T18:44:34.890Z,100189.41
2023-04-10T18:47:04.769Z,100185.19
2023-04-10T18:49:31.905Z,100175.59
2023-04-10T18:51:58.537Z,100168.84
2023-04-10T18:54:27.057Z,100177.34
2023-04-10T18:56:53.727Z,100166.09
2023-04-10T18:59:20.337Z,100170.84
2023-04-10T19:01:47.022Z,100175.91
2023-04-10T19:04:13.872Z,100191.06
2023-04-10T19:06:42.588Z,100190.53
2023-04-10T19:09:09.253Z,100193.16
2023-04-10T19:11:35.829Z,100187.91
2023-04-10T19:14:02.384Z,100191.09
2023-04-10T19:16:28.896Z,100194.84
2023-04-10T19:18:55.613Z,100202.75
2023-04-10T19:21:22.324Z,100192.34
2023-04-10T19:23:49.339Z,100190.75
2023-04-10T19:26:16.386Z,100184.59
2023-04-10T19:28:42.876Z,100184.81
2023-04-10T19:31:09.566Z,100173.03
2023-04-10T19:33:36.123Z,100182.81
2023-04-10T19:36:02.789Z,100182.56
2023-04-10T19:38:29.337Z,100176.47
2023-04-10T19:40:56.680Z,100175.41
2023-04-10T19:43:23.117Z,100180.38
2023-04-10T19:45:50.173Z,100185.41
2023-04-10T19:48:16.757Z,100187.94
2023-04-10T19:50:43.221Z,100187.50
2023-04-10T19:53:14.351Z,100175.63
2023-04-10T19:55:41.198Z,100177.19
2023-04-10T19:58:13.297Z,100167.19
2023-04-10T20:00:48.072Z,100160.31
2023-04-10T20:03:16.766Z,100163.25
2023-04-10T20:05:43.502Z,100155.66
2023-04-10T20:08:09.980Z,100153.13
2023-04-10T20:10:36.625Z,100150.34
2023-04-10T20:13:03.109Z,100145.53
2023-04-10T20:15:29.609Z,100135.97
2023-04-10T20:17:56.548Z,100130.72
2023-04-10T20:20:23.334Z,100121.56
2023-04-10T20:22:49.899Z,100109.81
2023-04-10T20:25:16.433Z,100104.47
2023-04-10T20:27:42.879Z,100113.28
2023-04-10T20:30:10.115Z,100112.09
2023-04-10T20:32:36.999Z,100102.72
2023-04-10T20:35:03.734Z,100099.25
2023-04-10T20:37:30.313Z,100096.63
2023-04-10T20:39:56.750Z,100091.41
2023-04-10T20:42:23.382Z,100100.34
2023-04-10T20:44:49.869Z,100102.22
2023-04-10T20:47:16.383Z,100100.72
2023-04-10T20:49:43.117Z,100096.03
2023-04-10T20:52:09.710Z,100090.97
2023-04-10T20:54:36.266Z,100080.72
2023-04-10T20:57:05.702Z,100068.97
2023-04-10T20:59:32.912Z,100076.97
2023-04-10T21:01:59.540Z,100076.22
2023-04-10T21:04:26.051Z,100075.47
2023-04-10T21:06:53.000Z,100074.53
2023-04-10T21:09:19.875Z,100079.97
2023-04-10T21:11:46.385Z,100087.97
2023-04-10T21:14:13.181Z,100091.44
2023-04-10T21:16:42.081Z,100084.06
2023-04-10T21:19:09.143Z,100067.34
2023-04-10T21:21:35.881Z,100067.25
2023-04-10T21:24:02.474Z,100075.50
2023-04-10T21:26:29.076Z,100081.81
2023-04-10T21:28:55.980Z,100070.72
2023-04-10T21:31:22.730Z,100059.34
2023-04-10T21:33:49.240Z,100049.97
2023-04-10T21:36:16.021Z,100059.63
2023-04-10T21:38:42.519Z,100051.13
2023-04-10T21:41:09.190Z,100056.09
2023-04-10T21:43:35.742Z,100060.78
2023-04-10T21:46:03.056Z,100052.56
2023-04-10T21:48:29.976Z,100048.16
2023-04-10T21:50:56.466Z,100038.69
2023-04-10T21:53:22.950Z,100010.53
2023-04-10T21:55:50.169Z,99987.81
2023-04-10T21:58:16.717Z,99966.72
2023-04-10T22:00:46.830Z,99972.59
2023-04-10T22:03:16.131Z,99973.66
2023-04-10T22:05:43.116Z,99974.59
2023-04-10T22:08:09.875Z,99981.53
2023-04-10T22:10:36.471Z,99979.28
2023-04-10T22:13:03.005Z,99964.47
2023-04-10T22:15:29.421Z,99962.13
2023-04-10T22:17:55.943Z,99952.53
2023-04-10T22:20:22.387Z,99951.69
2023-04-10T22:22:48.875Z,99949.25
2023-04-10T22:25:15.568Z,99940.44
2023-04-10T22:27:42.019Z,99948.59
2023-04-10T22:30:09.651Z,99943.56
2023-04-10T22:32:36.203Z,99960.28
2023-04-10T22:35:02.682Z,99949.84
2023-04-10T22:37:29.213Z,99950.78
2023-04-10T22:39:56.190Z,99961.56
2023-04-10T22:42:23.345Z,99969.63
2023-04-10T22:44:49.906Z,99967.09
2023-04-10T22:47:16.313Z,99959.97
2023-04-10T22:49:42.798Z,99962.69
2023-04-10T22:52:09.338Z,99982.41
2023-04-10T22:54:35.724Z,99991.25
2023-04-10T22:57:02.283Z,99986.66
2023-04-10T22:59:28.751Z,99989.97
2023-04-10T23:01:55.509Z,100014.19
2023-04-10T23:04:21.974Z,100022.94
2023-04-10T23:06:48.552Z,100045.47
2023-04-10T23:09:15.033Z,100042.38
2023-04-10T23:11:41.519Z,100041.00
2023-04-10T23:14:08.046Z,100031.47
2023-04-10T23:16:34.753Z,100037.53
2023-04-10T23:19:01.356Z,100040.78
2023-04-10T23:21:27.931Z,100035.91
2023-04-10T23:23:54.487Z,100047.72
2023-04-10T23:26:21.337Z,100042.56
2023-04-10T23:28:47.975Z,100046.44
2023-04-10T23:31:14.812Z,100038.13
2023-04-10T23:33:41.400Z,100044.69
2023-04-10T23:36:08.309Z,100036.75
2023-04-10T23:38:34.800Z,100035.81
2023-04-10T23:41:02.959Z,100040.34
2023-04-10T23:43:29.702Z,100025.56
2023-04-10T23:45:56.351Z,100015.59
2023-04-10T23:48:22.961Z,100005.81
2023-04-10T23:50:49.461Z,100001.38
2023-04-10T23:53:16.155Z,99996.91
2023-04-10T23:55:42.978Z,99994.59
2023-04-10T23:58:10.037Z,99986.28
